createdAt,value
2019-02-10T00:02:31.717Z,29.40
2019-02-10T00:07:35.082Z,29.30
2019-02-10T00:12:38.462Z,29.30
2019-02-10T00:17:42.404Z,29.20
2019-02-10T00:22:45.935Z,29.00
2019-02-10T00:27:49.662Z,28.90
2019-02-10T00:32:52.944Z,28.90
2019-02-10T00:37:56.309Z,29.20
2019-02-10T00:42:59.586Z,29.60
2019-02-10T00:48:02.848Z,29.60
2019-02-10T00:53:06.104Z,29.70
2019-02-10T00:58:09.373Z,30.40
2019-02-10T01:03:12.741Z,30.50
2019-02-10T01:08:16.020Z,30.60
2019-02-10T01:13:19.283Z,30.60
2019-02-10T01:18:22.683Z,30.60
2019-02-10T01:23:26.018Z,30.30
2019-02-10T01:28:29.427Z,30.80
2019-02-10T01:33:32.687Z,30.70
2019-02-10T01:38:35.993Z,30.80
2019-02-10T01:46:40.185Z,30.70
2019-02-10T01:51:43.642Z,31.40
2019-02-10T01:56:46.949Z,31.70
2019-02-10T02:01:50.503Z,31.30
2019-02-10T02:06:57.941Z,31.20
2019-02-10T02:11:58.795Z,31.20
2019-02-10T02:17:02.137Z,31.40
2019-02-10T02:22:05.663Z,30.80
2019-02-10T02:27:09.014Z,30.60
2019-02-10T02:32:12.262Z,31.00
2019-02-10T02:37:15.727Z,31.20
2019-02-10T02:42:19.011Z,31.50
2019-02-10T02:47:22.433Z,30.80
2019-02-10T02:52:25.835Z,31.00
2019-02-10T02:57:29.099Z,31.80
2019-02-10T03:02:32.443Z,31.40
2019-02-10T03:07:35.709Z,31.40
2019-02-10T03:12:39.177Z,31.90
2019-02-10T03:17:42.424Z,31.30
2019-02-10T03:22:45.631Z,31.10
2019-02-10T03:27:48.858Z,30.50
2019-02-10T03:32:52.109Z,30.60
2019-02-10T03:37:55.340Z,30.50
2019-02-10T03:42:58.570Z,30.20
2019-02-10T03:48:01.916Z,30.40
2019-02-10T03:53:05.208Z,30.80
2019-02-10T03:58:08.733Z,31.20
2019-02-10T04:03:12.087Z,31.60
2019-02-10T04:08:15.575Z,32.00
2019-02-10T04:13:18.891Z,31.40
2019-02-10T04:18:22.171Z,31.80
2019-02-10T04:23:25.417Z,31.80
2019-02-10T04:28:28.784Z,31.20
2019-02-10T04:33:32.049Z,31.00
2019-02-10T04:38:35.340Z,31.50
2019-02-10T04:43:38.667Z,31.30
2019-02-10T04:48:41.926Z,31.00
2019-02-10T04:53:45.191Z,30.80
2019-02-10T04:58:48.470Z,31.10
2019-02-10T11:19:15.447Z,26.90
2019-02-10T11:24:19.155Z,28.00
2019-02-10T11:29:23.601Z,27.80
2019-02-10T11:34:27.230Z,27.80
2019-02-10T11:39:30.803Z,27.50
2019-02-10T11:44:34.347Z,27.40
2019-02-10T11:49:37.877Z,27.40
2019-02-10T11:54:41.452Z,27.20
2019-02-10T11:59:44.969Z,27.10
2019-02-10T12:04:48.502Z,26.90
2019-02-10T12:09:52.060Z,26.90
2019-02-10T12:14:55.957Z,26.60
2019-02-10T12:19:59.549Z,26.60
2019-02-10T12:25:03.446Z,26.40
2019-02-10T12:30:09.766Z,26.60
2019-02-10T12:35:13.482Z,26.30
2019-02-10T12:40:17.055Z,26.20
2019-02-10T12:45:20.661Z,26.20
2019-02-10T12:50:24.310Z,26.10
2019-02-10T12:55:27.855Z,25.70
2019-02-10T13:00:31.532Z,25.70
2019-02-10T13:05:35.077Z,25.70
2019-02-10T13:10:38.742Z,25.50
2019-02-10T13:15:42.373Z,25.30
2019-02-10T13:20:46.003Z,25.20
2019-02-10T13:25:50.603Z,25.10
2019-02-10T13:30:54.348Z,25.10
2019-02-10T13:35:57.984Z,25.60
2019-02-10T13:41:01.646Z,25.40
2019-02-10T13:46:05.466Z,25.10
2019-02-10T13:51:09.101Z,24.80
2019-02-10T13:56:12.913Z,24.80
2019-02-10T14:01:16.443Z,24.70
2019-02-10T14:06:19.974Z,24.60
2019-02-10T14:11:23.601Z,24.80
2019-02-10T14:16:27.179Z,24.80
2019-02-10T14:21:30.719Z,24.70
2019-02-10T14:26:34.282Z,24.70
2019-02-10T14:31:38.156Z,24.70
2019-02-10T14:36:41.803Z,24.70
2019-02-10T14:41:45.353Z,24.70
2019-02-10T14:46:49.295Z,24.50
2019-02-10T14:51:52.907Z,24.40
2019-02-10T14:56:56.803Z,24.50
2019-02-10T15:02:00.324Z,24.40
2019-02-10T15:07:03.870Z,24.30
2019-02-10T15:12:07.134Z,24.20
2019-02-10T15:17:11.007Z,24.30
2019-02-10T15:22:14.635Z,24.50
2019-02-10T15:27:18.277Z,24.50
2019-02-10T15:32:21.940Z,24.40
2019-02-10T15:37:25.503Z,25.10
2019-02-10T15:42:29.033Z,24.80
2019-02-10T15:47:32.510Z,24.70
2019-02-10T15:52:36.303Z,24.80
2019-02-10T15:57:40.194Z,24.70
2019-02-10T16:02:43.476Z,24.70
2019-02-10T16:07:47.224Z,24.80
2019-02-10T16:12:50.583Z,24.80
2019-02-10T16:17:53.941Z,24.80
2019-02-10T16:22:57.194Z,24.80
2019-02-10T16:28:00.550Z,24.60
2019-02-10T16:33:03.821Z,24.60
2019-02-10T16:38:07.110Z,24.70
2019-02-10T16:43:10.419Z,24.70
2019-02-10T16:48:13.997Z,24.70
2019-02-10T16:53:17.287Z,24.70
2019-02-10T16:58:20.652Z,24.60
2019-02-10T17:03:23.908Z,24.70
2019-02-10T17:08:27.471Z,24.80
2019-02-10T17:13:30.919Z,25.30
2019-02-10T17:18:34.806Z,25.40
2019-02-10T17:23:38.402Z,25.50
2019-02-10T17:28:41.965Z,25.80
2019-02-10T17:33:45.231Z,25.60
2019-02-10T17:38:48.862Z,25.50
2019-02-10T17:43:52.361Z,25.30
2019-02-10T17:48:55.829Z,25.20
2019-02-10T17:53:59.451Z,25.40
2019-02-10T17:59:03.259Z,25.10
2019-02-10T18:04:07.402Z,25.30
2019-02-10T18:09:10.814Z,25.30
2019-02-10T18:14:14.191Z,25.10
2019-02-10T18:19:17.676Z,24.80
2019-02-10T18:24:21.584Z,25.10
2019-02-10T18:29:25.478Z,25.20
2019-02-10T18:34:28.808Z,25.40
2019-02-10T18:39:32.695Z,25.10
2019-02-10T18:44:36.758Z,25.40
2019-02-10T18:49:41.225Z,25.70
2019-02-10T18:54:44.610Z,26.10
2019-02-10T18:59:48.025Z,26.20
2019-02-10T19:04:51.551Z,26.40
2019-02-10T19:09:54.864Z,26.40
2019-02-10T19:14:58.145Z,26.50
2019-02-10T19:20:01.401Z,26.30
2019-02-10T19:25:04.845Z,26.20
2019-02-10T19:30:09.299Z,26.20
2019-02-10T19:35:13.113Z,26.00
2019-02-10T19:40:16.688Z,26.20
2019-02-10T19:45:20.319Z,27.00
2019-02-10T19:50:23.682Z,26.30
2019-02-10T19:55:27.198Z,26.00
2019-02-10T20:00:30.697Z,26.50
2019-02-10T20:05:33.940Z,26.90
2019-02-10T20:10:37.237Z,26.80
2019-02-10T20:15:40.525Z,26.80
2019-02-10T20:20:44.049Z,27.00
2019-02-10T20:25:47.305Z,27.10
2019-02-10T20:30:50.957Z,26.80
2019-02-10T20:35:55.027Z,26.60
2019-02-10T20:40:58.498Z,26.50
2019-02-10T20:46:01.875Z,26.60
2019-02-10T20:51:05.099Z,27.00
2019-02-10T20:56:08.664Z,27.00
2019-02-10T21:01:12.075Z,27.00
2019-02-10T21:06:15.341Z,26.80
2019-02-10T21:11:18.607Z,27.10
2019-02-10T21:16:21.874Z,27.40
2019-02-10T21:21:25.341Z,27.20
2019-02-10T21:26:28.929Z,26.90
2019-02-10T21:31:32.531Z,26.90
2019-02-10T21:36:35.759Z,26.90
2019-02-10T21:41:39.366Z,26.70
2019-02-10T21:46:42.692Z,27.10
2019-02-10T21:51:45.922Z,27.30
2019-02-10T21:56:49.335Z,27.50
2019-02-10T22:01:53.816Z,27.60
2019-02-10T22:06:57.434Z,27.50
2019-02-10T22:12:00.965Z,27.70
2019-02-10T22:17:04.495Z,27.60
2019-02-10T22:22:07.942Z,27.60
2019-02-10T22:27:11.184Z,28.10
2019-02-10T22:32:14.454Z,28.40
2019-02-10T22:37:17.917Z,28.50
2019-02-10T22:42:21.717Z,28.10
2019-02-10T22:47:25.062Z,28.50
2019-02-10T22:52:28.375Z,27.60
2019-02-10T22:57:31.793Z,27.80
2019-02-10T23:02:35.004Z,27.60
2019-02-10T23:07:38.267Z,27.60
2019-02-10T23:12:41.585Z,27.50
2019-02-10T23:17:44.984Z,27.90
2019-02-10T23:22:48.410Z,28.00
2019-02-10T23:27:52.409Z,28.10
2019-02-10T23:32:56.021Z,28.40
2019-02-10T23:37:59.338Z,29.50
2019-02-10T23:43:02.573Z,30.20
2019-02-10T23:48:05.930Z,30.90
2019-02-10T23:53:09.202Z,31.10
2019-02-10T23:58:12.514Z,30.80
